Time;durP1;ratioP1;P1;durP2;ratioP2;P2;SDS_P1;SDS_P2;PMS_P1;PMS_P2;Temp;Humidity;BMP_temperature;BMP_pressure;BME280_temperature;BME280_humidity;BME280_pressure;Samples;Min_cycle;Max_cycle;Signal;HPM_P1;HPM_P2
2021/10/25 00:01:01;;;;;;;;;;;;;;;;;;5114502;28;19923;-74
2021/10/25 00:03:28;;;;;;;;;;;;;;;;;;5114668;28;19923;-74
2021/10/25 00:05:54;;;;;;;;;;;;;;;;;;5114537;28;20374;-74
2021/10/25 00:08:20;;;;;;;;;;;;;;;;;;5114137;28;19924;-74
2021/10/25 00:10:47;;;;;;;;;;;;;;;;;;5114921;28;19924;-74
2021/10/25 00:13:13;;;;;;;;;;;;;;;;;;5114535;28;19923;-74
2021/10/25 00:15:39;;;;;;;;;;;;;;;;;;5114236;28;19924;-74
2021/10/25 00:18:05;;;;;;;;;;;;;;;;;;5114518;28;19923;-74
2021/10/25 00:20:32;;;;;;;;;;;;;;;;;;5114048;28;20400;-74
2021/10/25 00:22:58;;;;;;;;;;;;;;;;;;5114386;28;19923;-74
2021/10/25 00:25:24;;;;;;;;;;;;;;;;;;5113949;28;20014;-74
2021/10/25 00:27:51;;;;;;;;;;;;;;;;;;5114521;28;19946;-72
2021/10/25 00:30:17;;;;;;;;;;;;;;;;;;5113806;28;19930;-73
2021/10/25 00:32:43;;;;;;;;;;;;;;;;;;5114202;28;19934;-72
2021/10/25 00:35:10;;;;;;;;;;;;;;;;;;5114230;28;19930;-73
2021/10/25 00:37:36;;;;;;;;;;;;;;;;;;5113604;28;20370;-72
2021/10/25 00:40:02;;;;;;;;;;;;;;;;;;5114159;28;19930;-72
2021/10/25 00:42:29;;;;;;;;;;;;;;;;;;5113862;28;19924;-73
2021/10/25 00:44:55;;;;;;;;;;;;;;;;;;5113693;28;19924;-74
2021/10/25 00:47:21;;;;;;;;;;;;;;;;;;5113343;28;19924;-74
2021/10/25 00:49:47;;;;;;;;;;;;;;;;;;5113679;28;20404;-73
2021/10/25 00:52:14;;;;;;;;;;;;;;;;;;5113552;28;19928;-73
2021/10/25 00:54:40;;;;;;;;;;;;;;;;;;5113793;28;19971;-74
2021/10/25 00:57:07;;;;;;;;;;;;;;;;;;5113480;28;20069;-74
2021/10/25 00:59:33;;;;;;;;;;;;;;;;;;5113421;28;19924;-74
2021/10/25 01:01:59;;;;;;;;;;;;;;;;;;5113337;28;19924;-74
2021/10/25 01:04:26;;;;;;;;;;;;;;;;;;5113163;28;19930;-73
2021/10/25 01:06:52;;;;;;;;;;;;;;;;;;5113891;28;19930;-73
2021/10/25 01:09:18;;;;;;;;;;;;;;;;;;5113340;28;19931;-73
2021/10/25 01:11:45;;;;;;;;;;;;;;;;;;5113292;28;19924;-74
2021/10/25 01:14:11;;;;;;;;;;;;;;;;;;5113389;28;19924;-73
2021/10/25 01:16:37;;;;;;;;;;;;;;;;;;5113275;28;19945;-74
2021/10/25 01:19:03;;;;;;;;;;;;;;;;;;5113060;28;19934;-73
2021/10/25 01:21:30;;;;;;;;;;;;;;;;;;5113175;28;19924;-74
2021/10/25 01:23:56;;;;;;;;;;;;;;;;;;5113490;28;19924;-74
2021/10/25 01:26:23;;;;;;;;;;;;;;;;;;5113254;28;20348;-74
2021/10/25 01:28:49;;;;;;;;;;;;;;;;;;5113444;28;20014;-74
2021/10/25 01:31:16;;;;;;;;;;;;;;;;;;5112777;28;20373;-74
2021/10/25 01:33:42;;;;;;;;;;;;;;;;;;5112926;28;19938;-73
2021/10/25 01:36:08;;;;;;;;;;;;;;;;;;5113193;28;19969;-74
2021/10/25 01:38:35;;;;;;;;;;;;;;;;;;5112961;28;19927;-74
2021/10/25 01:41:01;;;;;;;;;;;;;;;;;;5113184;28;19940;-74
2021/10/25 01:43:27;;;;;;;;;;;;;;;;;;5113139;28;19930;-74
2021/10/25 01:45:54;;;;;;;;;;;;;;;;;;5113130;28;19927;-74
2021/10/25 01:48:20;;;;;;;;;;;;;;;;;;5112622;28;20347;-73
2021/10/25 01:50:46;;;;;;;;;;;;;;;;;;5112709;28;19931;-73
2021/10/25 01:53:13;;;;;;;;;;;;;;;;;;5113378;28;19924;-74
2021/10/25 01:55:39;;;;;;;;;;;;;;;;;;5112870;28;20290;-74
2021/10/25 01:58:06;;;;;;;;;;;;;;;;;;5112552;28;19923;-73
2021/10/25 02:00:32;;;;;;;;;;;;;;;;;;5115172;28;20446;-73
2021/10/25 02:02:59;;;;;;;;;;;;;;;;;;5117149;28;19924;-73
2021/10/25 02:05:25;;;;;;;;;;;;;;;;;;5116899;28;19967;-73
2021/10/25 02:07:52;;;;;;;;;;;;;;;;;;5116925;28;19924;-73
2021/10/25 02:10:18;;;;;;;;;;;;;;;;;;5116457;28;20022;-73
2021/10/25 02:12:44;;;;;;;;;;;;;;;;;;5117000;28;19923;-73
2021/10/25 02:15:11;;;;;;;;;;;;;;;;;;5117004;28;20290;-74
2021/10/25 02:17:37;;;;;;;;;;;;;;;;;;5116182;28;19924;-74
2021/10/25 02:20:03;;;;;;;;;;;;;;;;;;5116873;28;19924;-73
2021/10/25 02:22:29;;;;;;;;;;;;;;;;;;5116632;28;19945;-73
2021/10/25 02:24:56;;;;;;;;;;;;;;;;;;5116512;28;19931;-73
2021/10/25 02:27:23;;;;;;;;;;;;;;;;;;5116488;28;19947;-74
2021/10/25 02:29:49;;;;;;;;;;;;;;;;;;5116575;28;19924;-73
2021/10/25 02:32:17;;;;;;;;;;;;;;;;;;5116088;28;19930;-73
2021/10/25 02:34:45;;;;;;;;;;;;;;;;;;5116616;28;20014;-74
2021/10/25 02:37:11;;;;;;;;;;;;;;;;;;5116305;28;19924;-74
2021/10/25 02:39:38;;;;;;;;;;;;;;;;;;5116163;28;19924;-74
2021/10/25 02:42:04;;;;;;;;;;;;;;;;;;5116511;28;20010;-73
2021/10/25 02:44:30;;;;;;;;;;;;;;;;;;5115814;28;19924;-74
2021/10/25 02:46:56;;;;;;;;;;;;;;;;;;5116159;28;19924;-74
2021/10/25 02:49:23;;;;;;;;;;;;;;;;;;5116088;28;19928;-74
2021/10/25 02:51:49;;;;;;;;;;;;;;;;;;5116058;28;19924;-74
2021/10/25 02:54:15;;;;;;;;;;;;;;;;;;5115940;28;19928;-74
2021/10/25 02:56:42;;;;;;;;;;;;;;;;;;5116280;28;19924;-74
2021/10/25 02:59:09;;;;;;;;;;;;;;;;;;5115594;28;19923;-73
2021/10/25 03:01:36;;;;;;;;;;;;;;;;;;5115891;28;20019;-73
2021/10/25 03:04:02;;;;;;;;;;;;;;;;;;5115871;28;19924;-73
2021/10/25 03:06:28;;;;;;;;;;;;;;;;;;5116790;28;19923;-74
2021/10/25 03:08:55;;;;;;;;;;;;;;;;;;5118106;28;19923;-74
2021/10/25 03:11:21;;;;;;;;;;;;;;;;;;5115903;28;19924;-74
2021/10/25 03:13:47;;;;;;;;;;;;;;;;;;5115774;28;19923;-74
2021/10/25 03:16:14;;;;;;;;;;;;;;;;;;5115430;28;19985;-73
2021/10/25 03:18:40;;;;;;;;;;;;;;;;;;5115718;28;19930;-73
2021/10/25 03:21:06;;;;;;;;;;;;;;;;;;5115780;28;19923;-73
2021/10/25 03:23:34;;;;;;;;;;;;;;;;;;5115149;28;19924;-73
2021/10/25 03:26:00;;;;;;;;;;;;;;;;;;5115669;28;19923;-74
2021/10/25 03:28:27;;;;;;;;;;;;;;;;;;5115061;28;20306;-74
2021/10/25 03:30:53;;;;;;;;;;;;;;;;;;5115173;28;19931;-73
2021/10/25 03:33:20;;;;;;;;;;;;;;;;;;5115226;28;19924;-73
2021/10/25 03:35:46;;;;;;;;;;;;;;;;;;5115284;28;19982;-73
2021/10/25 03:38:13;;;;;;;;;;;;;;;;;;5115120;28;19924;-74
2021/10/25 03:40:42;;;;;;;;;;;;;;;;;;5114786;28;20366;-74
2021/10/25 03:43:08;;;;;;;;;;;;;;;;;;5114929;28;19968;-74
2021/10/25 03:45:38;;;;;;;;;;;;;;;;;;5114618;28;20048;-73
2021/10/25 03:48:09;;;;;;;;;;;;;;;;;;5115183;28;20026;-73
2021/10/25 03:50:37;;;;;;;;;;;;;;;;;;5114929;28;19927;-74
2021/10/25 03:53:07;;;;;;;;;;;;;;;;;;5114750;28;19930;-74
2021/10/25 03:55:38;;;;;;;;;;;;;;;;;;5114734;28;19923;-74
2021/10/25 04:28:24;;;;;;;;;;;;;;;;;;5114068;28;19920;-74
2021/10/25 04:30:55;;;;;;;;;;;;;;;;;;5114382;28;20018;-73
2021/10/25 04:33:21;;;;;;;;;;;;;;;;;;5113787;28;20375;-74
2021/10/25 04:35:48;;;;;;;;;;;;;;;;;;5113911;28;19930;-74
2021/10/25 04:38:14;;;;;;;;;;;;;;;;;;5113676;28;19924;-74
2021/10/25 04:40:40;;;;;;;;;;;;;;;;;;5114184;28;19924;-73
2021/10/25 04:43:06;;;;;;;;;;;;;;;;;;5114111;28;19930;-74
2021/10/25 04:45:33;;;;;;;;;;;;;;;;;;5113728;28;19946;-73
2021/10/25 04:47:59;;;;;;;;;;;;;;;;;;5113671;28;20378;-73
2021/10/25 04:50:26;;;;;;;;;;;;;;;;;;5113505;28;20362;-73
2021/10/25 04:52:52;;;;;;;;;;;;;;;;;;5113565;28;19931;-74
2021/10/25 04:55:20;;;;;;;;;;;;;;;;;;5113542;28;19930;-73
2021/10/25 04:57:46;;;;;;;;;;;;;;;;;;5113523;28;19935;-73
2021/10/25 05:00:12;;;;;;;;;;;;;;;;;;5113350;28;19931;-73
2021/10/25 05:02:39;;;;;;;;;;;;;;;;;;5113197;28;19924;-73
2021/10/25 05:05:05;;;;;;;;;;;;;;;;;;5113353;28;19927;-73
2021/10/25 05:07:31;;;;;;;;;;;;;;;;;;5113065;28;19924;-72
2021/10/25 05:09:58;;;;;;;;;;;;;;;;;;5113606;28;19923;-72
2021/10/25 05:12:24;;;;;;;;;;;;;;;;;;5113024;28;19935;-72
2021/10/25 05:14:50;;;;;;;;;;;;;;;;;;5113436;28;19931;-72
2021/10/25 05:17:17;;;;;;;;;;;;;;;;;;5113291;28;19927;-72
2021/10/25 05:19:43;;;;;;;;;;;;;;;;;;5113351;28;19924;-74
2021/10/25 05:22:10;;;;;;;;;;;;;;;;;;5113468;28;19924;-76
2021/10/25 05:24:37;;;;;;;;;;;;;;;;;;5112789;28;19927;-76
2021/10/25 05:27:06;;;;;;;;;;;;;;;;;;5113300;28;19973;-78
2021/10/25 05:29:32;;;;;;;;;;;;;;;;;;5112925;28;20337;-74
2021/10/25 05:31:58;;;;;;;;;;;;;;;;;;5113178;28;19938;-74
2021/10/25 05:34:25;;;;;;;;;;;;;;;;;;5113294;28;19924;-74
2021/10/25 05:36:51;;;;;;;;;;;;;;;;;;5113060;28;20529;-73
2021/10/25 05:39:17;;;;;;;;;;;;;;;;;;5112793;28;19923;-73
2021/10/25 05:41:44;;;;;;;;;;;;;;;;;;5113183;28;20286;-68
2021/10/25 05:44:10;;;;;;;;;;;;;;;;;;5112905;28;19924;-74
2021/10/25 05:46:37;;;;;;;;;;;;;;;;;;5112764;28;19928;-74
2021/10/25 05:49:04;;;;;;;;;;;;;;;;;;5111534;28;19931;-73
2021/10/25 05:51:30;;;;;;;;;;;;;;;;;;5112722;28;20315;-73
2021/10/25 05:53:57;;;;;;;;;;;;;;;;;;5112837;28;19928;-73
2021/10/25 05:56:24;;;;;;;;;;;;;;;;;;5112872;28;19927;-74
2021/10/25 05:58:52;;;;;;;;;;;;;;;;;;5113040;28;19930;-73
2021/10/25 06:01:20;;;;;;;;;;;;;;;;;;5112282;28;19977;-74
2021/10/25 06:03:48;;;;;;;;;;;;;;;;;;5112662;28;20385;-73
2021/10/25 06:06:14;;;;;;;;;;;;;;;;;;5112918;28;20089;-73
2021/10/25 06:08:41;;;;;;;;;;;;;;;;;;5112987;28;19924;-74
2021/10/25 06:11:07;;;;;;;;;;;;;;;;;;5112689;28;19924;-74
2021/10/25 06:13:37;;;;;;;;;;;;;;;;;;5112715;28;19923;-74
2021/10/25 06:16:10;;;;;;;;;;;;;;;;;;5113267;28;20026;-74
2021/10/25 06:18:36;;;;;;;;;;;;;;;;;;5112525;28;19935;-74
2021/10/25 06:21:03;;;;;;;;;;;;;;;;;;5113061;28;19930;-73
2021/10/25 06:23:29;;;;;;;;;;;;;;;;;;5112254;28;20418;-73
2021/10/25 06:25:56;;;;;;;;;;;;;;;;;;5112461;28;19924;-75
2021/10/25 06:28:23;;;;;;;;;;;;;;;;;;5112244;28;20018;-73
2021/10/25 06:30:55;;;;;;;;;;;;;;;;;;5112493;28;20007;-74
2021/10/25 06:33:22;;;;;;;;;;;;;;;;;;5112466;28;19953;-73
2021/10/25 06:35:57;;;;;;;;;;;;;;;;;;5113661;28;19969;-74
2021/10/25 06:38:24;;;;;;;;;;;;;;;;;;5112198;28;20267;-72
2021/10/25 06:40:51;;;;;;;;;;;;;;;;;;5112421;28;19963;-72
2021/10/25 06:43:17;;;;;;;;;;;;;;;;;;5114243;28;19928;-73
2021/10/25 06:45:43;;;;;;;;;;;;;;;;;;5113776;28;19924;-73
2021/10/25 06:48:10;;;;;;;;;;;;;;;;;;5116317;28;19947;-73
2021/10/25 06:50:39;;;;;;;;;;;;;;;;;;5115780;28;19932;-74
2021/10/25 06:53:05;;;;;;;;;;;;;;;;;;5116156;28;19973;-74
2021/10/25 06:55:33;;;;;;;;;;;;;;;;;;5115634;28;19930;-74
2021/10/25 06:57:59;;;;;;;;;;;;;;;;;;5115963;28;19924;-73
2021/10/25 07:00:25;;;;;;;;;;;;;;;;;;5115852;28;19930;-74
2021/10/25 07:02:51;;;;;;;;;;;;;;;;;;5115993;28;20378;-74
2021/10/25 07:05:18;;;;;;;;;;;;;;;;;;5116433;28;19928;-74
2021/10/25 07:07:46;;;;;;;;;;;;;;;;;;5115191;28;20209;-74
2021/10/25 07:10:13;;;;;;;;;;;;;;;;;;5115665;28;19972;-73
2021/10/25 07:12:40;;;;;;;;;;;;;;;;;;5115674;28;19924;-74
2021/10/25 07:15:06;;;;;;;;;;;;;;;;;;5115961;28;19924;-74
2021/10/25 07:17:38;;;;;;;;;;;;;;;;;;5115229;28;19924;-74
2021/10/25 08:06:51;;;;;;;;;;;;;;;;;;5114601;28;19924;-73
2021/10/25 08:09:28;;;;;;;;;;;;;;;;;;5114641;28;20069;-73
2021/10/25 08:11:57;;;;;;;;;;;;;;;;;;5114449;28;19930;-73
2021/10/25 08:14:30;;;;;;;;;;;;;;;;;;5114475;28;19976;-73
2021/10/25 08:16:57;;;;;;;;;;;;;;;;;;5114326;28;19923;-73
2021/10/25 08:19:26;;;;;;;;;;;;;;;;;;5114291;28;19924;-73
2021/10/25 08:21:53;;;;;;;;;;;;;;;;;;5114605;28;19967;-73
2021/10/25 08:24:19;;;;;;;;;;;;;;;;;;5114106;28;19930;-73
2021/10/25 08:26:46;;;;;;;;;;;;;;;;;;5114132;28;20386;-73
2021/10/25 08:29:12;;;;;;;;;;;;;;;;;;5114101;28;19924;-73
2021/10/25 08:31:39;;;;;;;;;;;;;;;;;;5114053;28;19928;-73
2021/10/25 08:34:27;;;;;;;;;;;;;;;;;;5114296;28;19928;-73
2021/10/25 08:39:48;;;;;;;;;;;;;;;;;;5113732;28;19922;-73
2021/10/25 08:42:14;;;;;;;;;;;;;;;;;;5114165;28;20022;-73
2021/10/25 08:44:41;;;;;;;;;;;;;;;;;;5114104;28;20278;-73
2021/10/25 08:47:08;;;;;;;;;;;;;;;;;;5113769;28;19930;-73
2021/10/25 08:49:34;;;;;;;;;;;;;;;;;;5113628;27;19928;-73
2021/10/25 08:52:01;;;;;;;;;;;;;;;;;;5113937;28;19924;-73
2021/10/25 08:54:27;;;;;;;;;;;;;;;;;;5113397;28;19924;-73
2021/10/25 08:56:53;;;;;;;;;;;;;;;;;;5113778;28;19924;-73
2021/10/25 08:59:21;;;;;;;;;;;;;;;;;;5113057;28;20412;-73
2021/10/25 09:01:47;;;;;;;;;;;;;;;;;;5113938;28;20370;-74
2021/10/25 09:04:13;;;;;;;;;;;;;;;;;;5113492;28;19924;-74
2021/10/25 09:06:40;;;;;;;;;;;;;;;;;;5113123;28;19963;-74
2021/10/25 09:09:07;;;;;;;;;;;;;;;;;;5113447;28;19924;-74
2021/10/25 09:11:33;;;;;;;;;;;;;;;;;;5113399;28;19928;-73
2021/10/25 09:13:59;;;;;;;;;;;;;;;;;;5113375;28;19924;-73
2021/10/25 09:16:26;;;;;;;;;;;;;;;;;;5112995;28;19924;-73
2021/10/25 09:18:52;;;;;;;;;;;;;;;;;;5113210;28;19924;-74
2021/10/25 09:21:18;;;;;;;;;;;;;;;;;;5113166;28;19927;-74
2021/10/25 09:23:45;;;;;;;;;;;;;;;;;;5113278;28;19923;-74
2021/10/25 09:26:12;;;;;;;;;;;;;;;;;;5113146;28;19938;-74
2021/10/25 09:28:40;;;;;;;;;;;;;;;;;;5112785;28;20030;-74
2021/10/25 09:31:09;;;;;;;;;;;;;;;;;;5113409;28;20022;-74
2021/10/25 09:33:36;;;;;;;;;;;;;;;;;;5113080;28;19928;-73
2021/10/25 09:36:05;;;;;;;;;;;;;;;;;;5112995;28;20327;-73
2021/10/25 09:38:33;;;;;;;;;;;;;;;;;;5112742;28;20111;-73
2021/10/25 09:46:37;;;;;;;;;;;;;;;;;;5112863;28;19938;-73
2021/10/25 09:49:07;;;;;;;;;;;;;;;;;;5113340;28;19930;-72
2021/10/25 09:51:33;;;;;;;;;;;;;;;;;;5113027;28;20014;-73
2021/10/25 09:54:00;;;;;;;;;;;;;;;;;;5112869;28;19955;-73
2021/10/25 09:56:28;;;;;;;;;;;;;;;;;;5112876;28;19939;-73
2021/10/25 09:59:06;;;;;;;;;;;;;;;;;;5112675;28;19930;-73
2021/10/25 10:01:33;;;;;;;;;;;;;;;;;;5112747;28;19924;-73
2021/10/25 10:03:59;;;;;;;;;;;;;;;;;;5112696;28;19928;-73
2021/10/25 10:06:25;;;;;;;;;;;;;;;;;;5112504;28;19930;-73
2021/10/25 10:08:51;;;;;;;;;;;;;;;;;;5112967;28;19924;-73
2021/10/25 10:11:18;;;;;;;;;;;;;;;;;;5112377;28;19924;-74
2021/10/25 10:13:44;;;;;;;;;;;;;;;;;;5112658;28;19924;-74
2021/10/25 10:16:10;;;;;;;;;;;;;;;;;;5113001;28;19930;-74
2021/10/25 10:18:37;;;;;;;;;;;;;;;;;;5112745;28;19931;-74
2021/10/25 10:21:03;;;;;;;;;;;;;;;;;;5114171;28;19924;-73
2021/10/25 10:23:29;;;;;;;;;;;;;;;;;;5116530;28;19927;-73
2021/10/25 10:25:56;;;;;;;;;;;;;;;;;;5116844;28;19924;-73
2021/10/25 10:28:22;;;;;;;;;;;;;;;;;;5116161;28;19923;-73
2021/10/25 10:30:48;;;;;;;;;;;;;;;;;;5116673;28;19924;-73
2021/10/25 10:33:15;;;;;;;;;;;;;;;;;;5116885;28;19965;-73
2021/10/25 10:35:42;;;;;;;;;;;;;;;;;;5116473;28;19931;-73
2021/10/25 10:38:09;;;;;;;;;;;;;;;;;;5116252;28;20381;-73
2021/10/25 10:40:35;;;;;;;;;;;;;;;;;;5115985;28;19933;-74
2021/10/25 10:43:01;;;;;;;;;;;;;;;;;;5116410;28;19924;-74
2021/10/25 10:45:28;;;;;;;;;;;;;;;;;;5116079;28;20378;-74
2021/10/25 10:47:54;;;;;;;;;;;;;;;;;;5116511;28;20277;-72
2021/10/25 10:50:22;;;;;;;;;;;;;;;;;;5115865;28;19924;-72
2021/10/25 10:52:50;;;;;;;;;;;;;;;;;;5115880;28;19951;-73
2021/10/25 10:55:19;;;;;;;;;;;;;;;;;;5115741;28;19924;-73
2021/10/25 11:00:26;;;;;;;;;;;;;;;;;;5106105;28;19931;-74
2021/10/25 11:02:52;;;;;;;;;;;;;;;;;;5116146;28;20297;-74
2021/10/25 11:05:18;;;;;;;;;;;;;;;;;;5115795;28;19973;-74
2021/10/25 11:07:45;;;;;;;;;;;;;;;;;;5116065;28;20300;-74
2021/10/25 11:10:11;;;;;;;;;;;;;;;;;;5115729;28;19923;-74
2021/10/25 11:12:42;;;;;;;;;;;;;;;;;;5115700;28;19928;-74
2021/10/25 11:15:11;;;;;;;;;;;;;;;;;;5115725;28;19931;-74
2021/10/25 11:17:37;;;;;;;;;;;;;;;;;;5115638;28;19969;-74
2021/10/25 11:20:03;;;;;;;;;;;;;;;;;;5115793;28;20291;-74
2021/10/25 11:22:31;;;;;;;;;;;;;;;;;;5115114;28;19934;-75
2021/10/25 11:24:58;;;;;;;;;;;;;;;;;;5115786;28;20061;-74
2021/10/25 11:27:30;;;;;;;;;;;;;;;;;;5115219;28;19928;-74
2021/10/25 11:29:58;;;;;;;;;;;;;;;;;;5115549;28;19924;-74
2021/10/25 11:32:24;;;;;;;;;;;;;;;;;;5114886;28;20369;-74
2021/10/25 11:34:54;;;;;;;;;;;;;;;;;;5115458;28;19923;-72
2021/10/25 11:37:22;;;;;;;;;;;;;;;;;;5116768;28;19923;-72
2021/10/25 11:39:51;;;;;;;;;;;;;;;;;;5116374;28;20378;-72
2021/10/25 11:42:17;;;;;;;;;;;;;;;;;;5115088;28;19923;-73
2021/10/25 11:44:44;;;;;;;;;;;;;;;;;;5115189;28;19924;-72
2021/10/25 11:47:10;;;;;;;;;;;;;;;;;;5115267;28;19930;-72
2021/10/25 11:49:38;;;;;;;;;;;;;;;;;;5114628;28;20396;-73
2021/10/25 11:52:05;;;;;;;;;;;;;;;;;;5115208;28;19930;-72
2021/10/25 11:54:31;;;;;;;;;;;;;;;;;;5114505;28;19977;-72
2021/10/25 11:56:57;;;;;;;;;;;;;;;;;;5115098;28;19924;-74
2021/10/25 11:59:24;;;;;;;;;;;;;;;;;;5114589;28;19931;-73
2021/10/25 12:01:50;;;;;;;;;;;;;;;;;;5114659;28;20389;-73
2021/10/25 12:04:18;;;;;;;;;;;;;;;;;;5114749;28;19924;-73
2021/10/25 12:06:45;;;;;;;;;;;;;;;;;;5114968;28;19927;-73
2021/10/25 12:09:11;;;;;;;;;;;;;;;;;;5116055;28;19931;-73
2021/10/25 12:11:46;;;;;;;;;;;;;;;;;;5114370;28;19923;-74
2021/10/25 12:14:14;;;;;;;;;;;;;;;;;;5114812;28;20342;-73
2021/10/25 12:16:42;;;;;;;;;;;;;;;;;;5114663;28;19992;-73
2021/10/25 12:19:08;;;;;;;;;;;;;;;;;;5114377;28;19931;-73
2021/10/25 12:21:34;;;;;;;;;;;;;;;;;;5114202;28;19924;-73
2021/10/25 12:24:01;;;;;;;;;;;;;;;;;;5114210;28;20274;-73
2021/10/25 12:26:28;;;;;;;;;;;;;;;;;;5113915;28;19977;-73
2021/10/25 12:28:54;;;;;;;;;;;;;;;;;;5114441;28;19923;-73
2021/10/25 12:31:20;;;;;;;;;;;;;;;;;;5113867;28;20397;-73
2021/10/25 12:33:51;;;;;;;;;;;;;;;;;;5114028;28;19931;-73
2021/10/25 12:36:17;;;;;;;;;;;;;;;;;;5114096;28;19923;-73
2021/10/25 12:38:43;;;;;;;;;;;;;;;;;;5114263;28;20293;-73
2021/10/25 12:41:10;;;;;;;;;;;;;;;;;;5114013;28;19928;-73
2021/10/25 12:43:36;;;;;;;;;;;;;;;;;;5113330;28;20015;-73
2021/10/25 12:46:06;;;;;;;;;;;;;;;;;;5113973;28;19930;-73
2021/10/25 12:48:32;;;;;;;;;;;;;;;;;;5113257;28;19951;-73
2021/10/25 12:50:58;;;;;;;;;;;;;;;;;;5114147;28;19924;-73
2021/10/25 12:53:25;;;;;;;;;;;;;;;;;;5113639;28;20286;-73
2021/10/25 12:55:51;;;;;;;;;;;;;;;;;;5113580;28;19934;-73
2021/10/25 12:58:17;;;;;;;;;;;;;;;;;;5113646;28;19930;-73
2021/10/25 13:00:44;;;;;;;;;;;;;;;;;;5113304;28;19946;-73
2021/10/25 13:03:10;;;;;;;;;;;;;;;;;;5113375;28;20366;-73
2021/10/25 13:05:37;;;;;;;;;;;;;;;;;;5113148;28;19928;-73
2021/10/25 13:08:03;;;;;;;;;;;;;;;;;;5113340;28;20014;-73
2021/10/25 13:10:30;;;;;;;;;;;;;;;;;;5113371;28;19931;-73
2021/10/25 13:12:56;;;;;;;;;;;;;;;;;;5113658;28;19924;-73
2021/10/25 13:15:23;;;;;;;;;;;;;;;;;;5112890;28;19924;-73
2021/10/25 13:17:50;;;;;;;;;;;;;;;;;;5113670;28;19930;-74
2021/10/25 13:20:17;;;;;;;;;;;;;;;;;;5113258;28;19937;-74
2021/10/25 13:22:44;;;;;;;;;;;;;;;;;;5113034;28;20377;-73
2021/10/25 13:25:10;;;;;;;;;;;;;;;;;;5112974;28;19924;-73
2021/10/25 13:27:37;;;;;;;;;;;;;;;;;;5113065;28;19932;-73
2021/10/25 13:30:03;;;;;;;;;;;;;;;;;;5113192;28;19933;-73
2021/10/25 13:32:30;;;;;;;;;;;;;;;;;;5112640;28;20018;-75
2021/10/25 13:34:56;;;;;;;;;;;;;;;;;;5113221;28;19924;-73
2021/10/25 13:37:22;;;;;;;;;;;;;;;;;;5112754;28;19923;-73
2021/10/25 13:39:49;;;;;;;;;;;;;;;;;;5113347;28;19924;-73
2021/10/25 13:42:15;;;;;;;;;;;;;;;;;;5112997;28;19923;-73
2021/10/25 13:44:41;;;;;;;;;;;;;;;;;;5112974;28;19927;-73
2021/10/25 13:47:08;;;;;;;;;;;;;;;;;;5113029;28;19924;-74
2021/10/25 13:49:34;;;;;;;;;;;;;;;;;;5112593;28;20293;-74
2021/10/25 13:52:00;;;;;;;;;;;;;;;;;;5112878;28;19924;-74
2021/10/25 13:54:27;;;;;;;;;;;;;;;;;;5112361;28;20319;-74
2021/10/25 13:56:54;;;;;;;;;;;;;;;;;;5116378;28;19930;-74
2021/10/25 13:59:20;;;;;;;;;;;;;;;;;;5116641;28;20374;-74
2021/10/25 14:01:46;;;;;;;;;;;;;;;;;;5116963;28;19924;-74
2021/10/25 14:04:16;;;;;;;;;;;;;;;;;;5117554;28;19924;-74
2021/10/25 14:06:43;;;;;;;;;;;;;;;;;;5117498;28;20426;-74
2021/10/25 14:09:09;;;;;;;;;;;;;;;;;;5116964;27;19924;-74
2021/10/25 14:11:40;;;;;;;;;;;;;;;;;;5116966;28;19934;-74
2021/10/25 14:14:11;;;;;;;;;;;;;;;;;;5116863;28;19930;-74
2021/10/25 14:16:41;;;;;;;;;;;;;;;;;;5116545;28;20375;-74
2021/10/25 14:19:07;;;;;;;;;;;;;;;;;;5116884;28;19992;-74
2021/10/25 14:21:35;;;;;;;;;;;;;;;;;;5116688;28;19946;-74
2021/10/25 14:24:02;;;;;;;;;;;;;;;;;;5116683;28;19928;-74
2021/10/25 14:26:28;;;;;;;;;;;;;;;;;;5116679;28;19924;-74
2021/10/25 14:28:55;;;;;;;;;;;;;;;;;;5116587;28;19924;-74
2021/10/25 14:31:21;;;;;;;;;;;;;;;;;;5116542;28;19924;-74
2021/10/25 14:33:49;;;;;;;;;;;;;;;;;;5116586;28;19924;-74
2021/10/25 14:36:16;;;;;;;;;;;;;;;;;;5116422;28;19924;-74
2021/10/25 14:38:48;;;;;;;;;;;;;;;;;;5116491;28;20399;-73
2021/10/25 14:41:22;;;;;;;;;;;;;;;;;;5116407;28;20433;-74
2021/10/25 14:43:55;;;;;;;;;;;;;;;;;;5116284;28;19924;-74
2021/10/25 14:46:35;;;;;;;;;;;;;;;;;;5116224;28;19998;-74
2021/10/25 14:49:13;;;;;;;;;;;;;;;;;;5116580;28;20035;-73
2021/10/25 14:54:26;;;;;;;;;;;;;;;;;;5115740;28;19923;-73
2021/10/25 14:56:52;;;;;;;;;;;;;;;;;;5115971;28;19933;-73
2021/10/25 14:59:18;;;;;;;;;;;;;;;;;;5115468;28;19931;-73
2021/10/25 15:01:44;;;;;;;;;;;;;;;;;;5116199;28;19931;-74
2021/10/25 15:04:13;;;;;;;;;;;;;;;;;;5116012;28;20370;-73
2021/10/25 15:06:39;;;;;;;;;;;;;;;;;;5115179;28;19967;-73
2021/10/25 15:09:05;;;;;;;;;;;;;;;;;;5116110;28;19931;-73
2021/10/25 15:11:32;;;;;;;;;;;;;;;;;;5115847;28;19962;-73
2021/10/25 15:13:58;;;;;;;;;;;;;;;;;;5116009;28;19923;-74
2021/10/25 15:16:24;;;;;;;;;;;;;;;;;;5115406;28;19928;-74
2021/10/25 15:18:51;;;;;;;;;;;;;;;;;;5115814;28;19923;-75
2021/10/25 15:21:19;;;;;;;;;;;;;;;;;;5115708;28;19971;-75
2021/10/25 15:23:46;;;;;;;;;;;;;;;;;;5115897;28;19989;-75
2021/10/25 15:26:12;;;;;;;;;;;;;;;;;;5115543;28;19924;-74
2021/10/25 15:28:38;;;;;;;;;;;;;;;;;;5115376;28;19924;-77
2021/10/25 15:31:05;;;;;;;;;;;;;;;;;;5115778;28;19924;-77
2021/10/25 15:33:31;;;;;;;;;;;;;;;;;;5115192;28;20342;-74
2021/10/25 15:35:58;;;;;;;;;;;;;;;;;;5115271;28;19924;-76
2021/10/25 15:38:25;;;;;;;;;;;;;;;;;;5115235;28;19927;-75
2021/10/25 15:40:51;;;;;;;;;;;;;;;;;;5115294;28;19931;-75
2021/10/25 15:43:17;;;;;;;;;;;;;;;;;;5115190;28;19923;-75
2021/10/25 15:45:44;;;;;;;;;;;;;;;;;;5115201;28;20317;-75
2021/10/25 15:48:11;;;;;;;;;;;;;;;;;;5115128;28;19930;-75
2021/10/25 15:50:37;;;;;;;;;;;;;;;;;;5116035;28;19924;-75
2021/10/25 15:53:05;;;;;;;;;;;;;;;;;;5115212;28;19928;-74
2021/10/25 15:55:32;;;;;;;;;;;;;;;;;;5114772;28;20370;-75
2021/10/25 15:57:58;;;;;;;;;;;;;;;;;;5115048;28;20026;-75
2021/10/25 16:00:25;;;;;;;;;;;;;;;;;;5114439;28;19928;-73
2021/10/25 16:02:52;;;;;;;;;;;;;;;;;;5114610;28;19924;-74
2021/10/25 16:05:19;;;;;;;;;;;;;;;;;;5114804;28;20286;-75
2021/10/25 16:07:45;;;;;;;;;;;;;;;;;;5114580;28;19931;-75
2021/10/25 16:10:14;;;;;;;;;;;;;;;;;;5114420;28;19930;-75
2021/10/25 16:12:41;;;;;;;;;;;;;;;;;;5113863;28;19931;-75
2021/10/25 16:15:07;;;;;;;;;;;;;;;;;;5114491;28;19924;-75
2021/10/25 16:17:33;;;;;;;;;;;;;;;;;;5114177;28;19928;-75
2021/10/25 16:20:02;;;;;;;;;;;;;;;;;;5113777;28;19973;-75
2021/10/25 16:22:29;;;;;;;;;;;;;;;;;;5114048;27;19931;-75
2021/10/25 16:24:55;;;;;;;;;;;;;;;;;;5114598;28;19923;-75
2021/10/25 16:27:21;;;;;;;;;;;;;;;;;;5114205;28;20297;-75
2021/10/25 16:29:48;;;;;;;;;;;;;;;;;;5114293;28;19986;-74
2021/10/25 16:32:14;;;;;;;;;;;;;;;;;;5114329;28;19935;-75
2021/10/25 16:34:40;;;;;;;;;;;;;;;;;;5114334;28;19924;-75
2021/10/25 16:37:07;;;;;;;;;;;;;;;;;;5114219;28;19923;-75
2021/10/25 16:39:33;;;;;;;;;;;;;;;;;;5113622;28;20314;-75
2021/10/25 16:42:05;;;;;;;;;;;;;;;;;;5113814;28;19924;-74
2021/10/25 16:44:32;;;;;;;;;;;;;;;;;;5113524;28;19923;-74
2021/10/25 16:46:58;;;;;;;;;;;;;;;;;;5113902;28;19924;-74
2021/10/25 16:49:28;;;;;;;;;;;;;;;;;;5113803;28;20435;-74
2021/10/25 16:51:58;;;;;;;;;;;;;;;;;;5113843;28;19923;-74
2021/10/25 16:54:48;;;;;;;;;;;;;;;;;;5113669;28;19928;-74
2021/10/25 17:03:06;;;;;;;;;;;;;;;;;;5113521;28;19927;-74
2021/10/25 17:10:55;;;;;;;;;;;;;;;;;;5091751;28;19923;-74
2021/10/25 17:13:23;;;;;;;;;;;;;;;;;;5113119;28;19931;-74
2021/10/25 17:15:50;;;;;;;;;;;;;;;;;;5113517;28;19930;-73
2021/10/25 17:18:16;;;;;;;;;;;;;;;;;;5113033;28;20278;-74
2021/10/25 17:20:43;;;;;;;;;;;;;;;;;;5113442;28;19930;-73
2021/10/25 17:23:09;;;;;;;;;;;;;;;;;;5113128;28;20370;-74
2021/10/25 17:25:35;;;;;;;;;;;;;;;;;;5112844;28;19930;-75
2021/10/25 17:28:02;;;;;;;;;;;;;;;;;;5110132;28;20009;-76
2021/10/25 17:30:29;;;;;;;;;;;;;;;;;;5103931;28;19924;-75
2021/10/25 17:32:55;;;;;;;;;;;;;;;;;;5099829;28;20019;-75
2021/10/25 17:35:21;;;;;;;;;;;;;;;;;;5092785;28;19924;-76
2021/10/25 17:37:48;;;;;;;;;;;;;;;;;;5111162;28;19932;-76
2021/10/25 17:40:17;;;;;;;;;;;;;;;;;;5113007;28;19928;-77
2021/10/25 17:42:49;;;;;;;;;;;;;;;;;;5112949;28;19963;-75
2021/10/25 17:45:15;;;;;;;;;;;;;;;;;;5103959;28;19924;-75
2021/10/25 17:47:41;;;;;;;;;;;;;;;;;;5092866;28;19932;-76
2021/10/25 17:50:08;;;;;;;;;;;;;;;;;;5092477;28;20287;-75
2021/10/25 17:52:35;;;;;;;;;;;;;;;;;;5092146;28;20445;-76
2021/10/25 17:55:02;;;;;;;;;;;;;;;;;;5092519;28;20294;-76
2021/10/25 17:57:28;;;;;;;;;;;;;;;;;;5092573;28;19924;-76
2021/10/25 17:59:54;;;;;;;;;;;;;;;;;;5099329;28;20018;-75
2021/10/25 18:02:21;;;;;;;;;;;;;;;;;;5112358;28;20382;-76
2021/10/25 18:04:47;;;;;;;;;;;;;;;;;;5113016;28;19924;-75
2021/10/25 18:07:14;;;;;;;;;;;;;;;;;;5113071;28;19946;-75
2021/10/25 18:09:40;;;;;;;;;;;;;;;;;;5112651;28;19924;-76
2021/10/25 18:12:07;;;;;;;;;;;;;;;;;;5113157;28;19975;-75
2021/10/25 18:14:33;;;;;;;;;;;;;;;;;;5112549;28;19924;-75
2021/10/25 18:17:00;;;;;;;;;;;;;;;;;;5113019;28;20370;-75
2021/10/25 18:19:26;;;;;;;;;;;;;;;;;;5112344;28;19930;-75
2021/10/25 18:21:52;;;;;;;;;;;;;;;;;;5112690;28;19937;-75
2021/10/25 18:24:19;;;;;;;;;;;;;;;;;;5112316;28;20370;-76
2021/10/25 18:26:45;;;;;;;;;;;;;;;;;;5112561;28;19927;-76